createdAt,value
2019-02-05T00:01:06.401Z,68.40
2019-02-05T00:03:38.919Z,68.50
2019-02-05T00:06:11.974Z,68.80
2019-02-05T00:08:44.514Z,69.00
2019-02-05T00:11:17.188Z,69.10
2019-02-05T00:13:48.952Z,69.40
2019-02-05T00:16:21.152Z,69.70
2019-02-05T00:18:53.029Z,70.00
2019-02-05T00:21:25.822Z,70.30
2019-02-05T00:23:58.213Z,70.50
2019-02-05T00:26:30.472Z,70.70
2019-02-05T00:29:02.592Z,70.80
2019-02-05T00:31:34.471Z,71.00
2019-02-05T00:34:07.280Z,71.10
2019-02-05T00:36:39.466Z,71.20
2019-02-05T00:39:12.192Z,71.40
2019-02-05T00:41:44.942Z,71.40
2019-02-05T00:44:18.008Z,71.80
2019-02-05T00:46:49.828Z,71.80
2019-02-05T00:49:20.990Z,72.30
2019-02-05T00:51:52.436Z,72.30
2019-02-05T00:54:23.756Z,72.60
2019-02-05T00:56:55.822Z,72.80
2019-02-05T00:59:27.696Z,72.80
2019-02-05T01:01:59.638Z,73.00
2019-02-05T01:04:31.553Z,73.10
2019-02-05T01:07:04.029Z,73.50
2019-02-05T01:09:35.674Z,73.60
2019-02-05T01:12:07.269Z,73.70
2019-02-05T01:14:40.142Z,73.80
2019-02-05T01:17:11.809Z,73.80
2019-02-05T01:19:43.549Z,74.20
2019-02-05T01:22:16.731Z,74.20
2019-02-05T01:24:48.869Z,74.40
2019-02-05T01:27:21.054Z,74.70
2019-02-05T01:29:53.177Z,75.00
2019-02-05T01:32:25.342Z,75.20
2019-02-05T01:34:58.975Z,75.30
2019-02-05T01:37:31.389Z,75.80
2019-02-05T01:40:04.591Z,76.60
2019-02-05T01:42:37.353Z,76.40
2019-02-05T01:45:11.194Z,76.60
2019-02-05T01:47:43.535Z,76.50
2019-02-05T01:50:18.775Z,76.50
2019-02-05T01:52:50.472Z,76.80
2019-02-05T01:55:23.607Z,76.80
2019-02-05T01:57:55.488Z,77.00
2019-02-05T02:00:34.440Z,76.50
2019-02-05T02:03:06.938Z,76.90
2019-02-05T02:05:38.877Z,76.70
2019-02-05T02:08:12.297Z,76.90
2019-02-05T02:10:44.626Z,76.90
2019-02-05T02:13:17.061Z,77.50
2019-02-05T02:15:49.412Z,76.70
2019-02-05T02:18:24.073Z,76.50
2019-02-05T02:20:55.570Z,76.70
2019-02-05T02:23:27.834Z,76.70
2019-02-05T02:26:00.512Z,76.60
2019-02-05T02:28:32.103Z,76.70
2019-02-05T02:31:05.482Z,76.90
2019-02-05T02:33:37.618Z,76.60
2019-02-05T02:36:10.381Z,76.60
2019-02-05T02:38:43.027Z,76.60
2019-02-05T02:41:15.153Z,76.70
2019-02-05T02:43:47.323Z,76.50
2019-02-05T02:46:19.690Z,76.40
2019-02-05T02:48:51.892Z,76.80
2019-02-05T02:51:23.981Z,76.60
2019-02-05T02:53:56.119Z,76.70
2019-02-05T02:56:27.685Z,76.90
2019-02-05T02:58:59.442Z,77.30
2019-02-05T03:01:31.828Z,76.80
2019-02-05T03:04:06.429Z,77.00
2019-02-05T03:06:38.914Z,76.70
2019-02-05T03:09:11.711Z,76.40
2019-02-05T03:11:43.667Z,76.50
2019-02-05T03:14:15.628Z,76.50
2019-02-05T03:16:47.161Z,76.50
2019-02-05T03:19:19.873Z,76.80
2019-02-05T03:21:51.846Z,77.10
2019-02-05T03:24:24.284Z,76.90
2019-02-05T03:26:59.115Z,77.00
2019-02-05T03:29:30.375Z,77.20
2019-02-05T03:32:02.398Z,77.10
2019-02-05T03:34:34.670Z,76.70
2019-02-05T03:37:06.325Z,76.50
2019-02-05T03:39:37.702Z,76.30
2019-02-05T03:42:09.758Z,76.30
2019-02-05T03:44:41.449Z,77.00
2019-02-05T03:47:12.977Z,76.80
2019-02-05T03:49:44.952Z,76.90
2019-02-05T03:52:21.797Z,77.00
2019-02-05T03:55:44.099Z,77.10
2019-02-05T03:58:35.018Z,77.10
2019-02-05T04:02:02.749Z,77.10
2019-02-05T04:05:02.916Z,77.20
2019-02-05T04:08:24.157Z,77.20
2019-02-05T04:11:20.770Z,76.90
2019-02-05T04:14:28.824Z,76.70
2019-02-05T04:17:48.933Z,77.10
2019-02-05T04:21:03.286Z,77.00
2019-02-05T04:24:26.055Z,77.60
2019-02-05T04:27:45.137Z,77.70
2019-02-05T04:30:23.836Z,78.20
2019-02-05T04:33:45.315Z,78.40
2019-02-05T04:36:48.328Z,78.00
2019-02-05T04:39:50.807Z,77.90
2019-02-05T04:42:49.233Z,77.70
2019-02-05T04:45:58.168Z,77.70
2019-02-05T04:48:53.200Z,77.40
2019-02-05T04:51:57.991Z,77.70
2019-02-05T04:55:08.873Z,77.70
2019-02-05T04:58:22.392Z,77.50
2019-02-05T05:01:41.252Z,77.30
2019-02-05T05:04:54.678Z,77.20
2019-02-05T05:07:57.544Z,77.20
2019-02-05T05:10:28.930Z,77.10
2019-02-05T05:13:00.457Z,77.20
2019-02-05T05:15:33.192Z,76.90
2019-02-05T05:18:05.072Z,76.80
2019-02-05T05:20:37.390Z,76.60
2019-02-05T05:23:10.870Z,76.40
2019-02-05T05:25:43.503Z,76.50
2019-02-05T05:28:15.554Z,77.10
2019-02-05T05:30:47.818Z,76.10
2019-02-05T05:33:20.744Z,76.10
2019-02-05T05:35:54.286Z,76.10
2019-02-05T05:38:26.487Z,76.20
2019-02-05T05:41:00.669Z,76.10
2019-02-05T05:43:32.634Z,76.00
2019-02-05T05:46:03.899Z,75.90
2019-02-05T05:48:37.392Z,75.90
2019-02-05T05:51:08.904Z,75.90
2019-02-05T05:53:40.199Z,75.90
2019-02-05T05:56:12.112Z,75.90
2019-02-05T05:58:44.038Z,75.90
2019-02-05T06:01:16.037Z,75.60
2019-02-05T06:03:47.610Z,74.80
2019-02-05T06:06:19.408Z,73.00
2019-02-05T06:08:51.192Z,73.50
2019-02-05T06:11:24.277Z,73.00
2019-02-05T06:13:56.280Z,71.30
2019-02-05T06:16:29.635Z,69.60
2019-02-05T06:19:02.354Z,67.40
2019-02-05T06:21:35.241Z,65.10
2019-02-05T06:24:08.195Z,63.10
2019-02-05T06:26:40.528Z,61.50
2019-02-05T06:29:12.824Z,60.00
2019-02-05T06:31:45.703Z,59.00
2019-02-05T06:34:17.452Z,58.30
2019-02-05T06:36:50.912Z,57.60
2019-02-05T06:39:22.969Z,57.20
2019-02-05T06:41:54.743Z,56.80
2019-02-05T06:44:29.882Z,56.30
2019-02-05T06:47:01.840Z,56.00
2019-02-05T06:49:33.627Z,55.70
2019-02-05T06:52:06.778Z,55.40
2019-02-05T06:54:38.751Z,55.10
2019-02-05T06:57:11.076Z,54.80
2019-02-05T06:59:44.123Z,54.60
2019-02-05T07:02:17.770Z,54.30
2019-02-05T07:04:49.911Z,54.00
2019-02-05T07:07:23.090Z,53.60
2019-02-05T07:09:55.584Z,53.30
2019-02-05T07:12:28.938Z,52.90
2019-02-05T07:15:01.120Z,52.60
2019-02-05T07:17:35.487Z,52.50
2019-02-05T07:20:07.524Z,52.40
2019-02-05T07:22:39.561Z,52.30
2019-02-05T07:25:13.527Z,52.30
2019-02-05T07:27:45.474Z,52.10
2019-02-05T07:30:20.647Z,52.10
2019-02-05T07:32:53.597Z,51.80
2019-02-05T07:35:25.518Z,51.90
2019-02-05T07:37:57.992Z,51.70
2019-02-05T07:40:30.365Z,51.70
2019-02-05T07:43:02.839Z,51.70
2019-02-05T07:45:34.930Z,51.60
2019-02-05T07:48:07.844Z,51.50
2019-02-05T07:50:39.511Z,51.50
2019-02-05T07:53:11.292Z,51.20
2019-02-05T07:55:43.403Z,51.00
2019-02-05T07:58:15.185Z,50.80
2019-02-05T08:00:46.929Z,50.50
2019-02-05T08:03:19.197Z,50.20
2019-02-05T08:05:50.926Z,50.00
2019-02-05T08:08:23.193Z,49.80
2019-02-05T08:10:55.720Z,49.60
2019-02-05T08:13:27.326Z,49.50
2019-02-05T08:15:58.881Z,49.50
2019-02-05T08:18:30.625Z,49.50
2019-02-05T08:21:03.592Z,49.60
2019-02-05T08:23:35.072Z,49.50
2019-02-05T08:26:06.960Z,49.50
2019-02-05T08:28:40.953Z,49.50
2019-02-05T08:31:16.460Z,49.40
2019-02-05T08:33:50.350Z,49.40
2019-02-05T08:36:24.730Z,49.30
2019-02-05T08:38:57.180Z,49.30
2019-02-05T08:41:29.509Z,49.30
2019-02-05T08:44:02.037Z,49.50
2019-02-05T08:46:37.177Z,49.40
2019-02-05T08:49:08.952Z,49.40
2019-02-05T08:51:40.829Z,49.40
2019-02-05T08:54:12.288Z,50.10
2019-02-05T08:56:43.923Z,49.30
2019-02-05T08:59:16.410Z,49.30
2019-02-05T09:01:49.397Z,48.90
2019-02-05T09:04:21.524Z,48.40
2019-02-05T09:06:54.845Z,48.10
2019-02-05T09:09:26.504Z,47.80
2019-02-05T09:11:58.842Z,47.30
2019-02-05T09:14:30.228Z,46.70
2019-02-05T09:17:02.116Z,46.30
2019-02-05T09:19:33.995Z,45.80
2019-02-05T09:22:05.816Z,45.30
2019-02-05T09:24:37.904Z,44.90
2019-02-05T09:27:12.277Z,44.30
2019-02-05T09:29:45.684Z,43.80
2019-02-05T09:32:21.925Z,43.40
2019-02-05T09:34:53.711Z,43.10
2019-02-05T09:37:25.565Z,42.80
2019-02-05T09:39:57.400Z,42.50
2019-02-05T09:42:29.553Z,42.10
2019-02-05T09:45:03.073Z,42.00
2019-02-05T09:47:37.719Z,41.80
2019-02-05T09:50:11.799Z,41.70
2019-02-05T09:52:43.233Z,41.70
2019-02-05T09:55:17.459Z,41.70
2019-02-05T09:57:49.397Z,42.40
2019-02-05T10:00:26.996Z,41.80
2019-02-05T10:03:04.384Z,41.70
2019-02-05T10:05:35.881Z,41.70
2019-02-05T10:08:08.431Z,41.60
2019-02-05T10:10:41.993Z,41.60
2019-02-05T10:13:29.488Z,41.70
2019-02-05T10:16:20.448Z,41.60
2019-02-05T10:18:53.545Z,41.60
2019-02-05T10:21:25.819Z,42.20
2019-02-05T10:23:58.231Z,41.90
2019-02-05T10:26:29.804Z,41.90
2019-02-05T10:29:01.944Z,41.90
2019-02-05T10:31:34.923Z,41.80
2019-02-05T10:34:08.719Z,41.70
2019-02-05T10:36:41.577Z,41.60
2019-02-05T10:39:15.759Z,41.60
2019-02-05T10:41:48.891Z,41.50
2019-02-05T10:44:20.628Z,41.40
2019-02-05T10:46:54.224Z,41.50
2019-02-05T10:49:26.354Z,41.50
2019-02-05T10:51:57.782Z,41.60
2019-02-05T10:54:37.282Z,41.80
2019-02-05T10:57:11.484Z,41.90
2019-02-05T10:59:45.333Z,42.00
2019-02-05T11:02:18.381Z,42.00
2019-02-05T11:04:51.537Z,42.10
2019-02-05T11:07:23.965Z,42.10
2019-02-05T11:09:56.575Z,42.10
2019-02-05T11:12:29.129Z,42.20
2019-02-05T11:15:01.245Z,42.10
2019-02-05T11:17:32.957Z,41.60
2019-02-05T11:20:05.879Z,42.00
2019-02-05T11:22:37.966Z,41.90
2019-02-05T11:25:13.211Z,41.90
2019-02-05T11:27:46.054Z,41.80
2019-02-05T11:30:23.808Z,41.90
2019-02-05T11:32:56.773Z,42.00
2019-02-05T11:35:31.403Z,42.00
2019-02-05T11:38:03.655Z,41.90
2019-02-05T11:40:35.767Z,41.80
2019-02-05T11:43:08.121Z,41.70
2019-02-05T11:45:43.352Z,41.40
2019-02-05T11:48:19.752Z,41.30
2019-02-05T11:50:52.903Z,41.30
2019-02-05T11:53:24.901Z,41.30
2019-02-05T11:55:57.755Z,41.20
2019-02-05T11:58:29.329Z,41.20
2019-02-05T12:01:09.955Z,41.20
2019-02-05T12:03:41.839Z,41.10
2019-02-05T12:06:13.918Z,41.20
2019-02-05T12:08:45.779Z,41.10
2019-02-05T12:11:17.676Z,41.10
2019-02-05T12:13:50.083Z,41.20
2019-02-05T12:16:21.402Z,41.30
2019-02-05T12:19:00.227Z,41.40
2019-02-05T12:21:32.360Z,41.40
2019-02-05T12:24:08.219Z,41.30
2019-02-05T12:26:40.708Z,41.30
2019-02-05T12:29:13.201Z,41.20
2019-02-05T12:31:46.129Z,41.30
2019-02-05T12:34:20.366Z,41.10
2019-02-05T12:36:52.351Z,41.20
2019-02-05T12:39:24.325Z,41.20
2019-02-05T12:42:01.387Z,41.20
2019-02-05T12:44:33.121Z,41.20
2019-02-05T12:47:05.720Z,41.30
2019-02-05T12:49:38.687Z,41.30
2019-02-05T12:52:11.167Z,41.40
2019-02-05T12:54:43.642Z,41.40
2019-02-05T12:57:16.751Z,41.60
2019-02-05T12:59:49.626Z,41.80
2019-02-05T13:02:22.812Z,42.10
2019-02-05T13:04:55.542Z,42.60
2019-02-05T13:07:28.160Z,43.30
2019-02-05T13:10:00.412Z,43.90
2019-02-05T13:12:33.465Z,44.60
2019-02-05T13:15:06.481Z,45.10
2019-02-05T13:17:38.356Z,45.50
2019-02-05T13:20:13.540Z,46.60
2019-02-05T13:22:45.091Z,46.10
2019-02-05T13:25:23.219Z,46.70
2019-02-05T13:27:56.013Z,47.30
2019-02-05T13:30:29.956Z,47.60
2019-02-05T13:33:03.407Z,47.50
2019-02-05T13:35:37.029Z,47.50
2019-02-05T13:38:09.396Z,47.60
2019-02-05T13:40:41.279Z,47.70
2019-02-05T13:43:13.674Z,47.80
2019-02-05T13:45:47.645Z,48.00
2019-02-05T13:48:20.172Z,47.90
2019-02-05T13:50:54.230Z,48.30
2019-02-05T13:53:25.861Z,48.50
2019-02-05T13:55:58.267Z,48.90
2019-02-05T13:58:30.022Z,49.40
2019-02-05T14:01:03.134Z,49.90
2019-02-05T14:03:36.527Z,50.00
2019-02-05T14:06:10.649Z,49.90
2019-02-05T14:08:43.646Z,49.70
2019-02-05T14:11:17.606Z,49.40
2019-02-05T14:13:51.028Z,49.10
2019-02-05T14:16:25.207Z,48.70
2019-02-05T14:18:58.010Z,48.40
2019-02-05T14:21:30.847Z,48.30
2019-02-05T14:24:06.761Z,48.00
2019-02-05T14:26:40.433Z,47.80
2019-02-05T14:29:13.047Z,47.80
2019-02-05T14:31:45.157Z,47.70
2019-02-05T14:34:17.727Z,47.50
2019-02-05T14:36:49.699Z,47.40
2019-02-05T14:39:21.906Z,47.40
2019-02-05T14:41:53.808Z,47.30
2019-02-05T14:44:25.769Z,47.30
2019-02-05T14:46:58.211Z,47.20
2019-02-05T14:49:32.488Z,47.10
2019-02-05T14:52:05.923Z,47.20
2019-02-05T14:54:38.550Z,47.80
2019-02-05T14:57:12.090Z,47.20
2019-02-05T14:59:44.249Z,47.20
2019-02-05T15:02:18.767Z,47.10
2019-02-05T15:05:22.418Z,47.20
2019-02-05T15:07:55.688Z,47.20
2019-02-05T15:10:28.935Z,47.30
2019-02-05T15:13:15.730Z,47.40
2019-02-05T15:15:47.327Z,47.30
2019-02-05T15:18:26.370Z,47.40
2019-02-05T15:21:00.371Z,47.70
2019-02-05T15:24:37.130Z,47.90
2019-02-05T15:27:01.058Z,48.20
2019-02-05T15:29:35.410Z,48.70
2019-02-05T15:32:06.534Z,48.90
2019-02-05T15:34:37.244Z,48.80
2019-02-05T15:37:08.296Z,49.40
2019-02-05T15:39:39.690Z,49.60
2019-02-05T15:42:10.991Z,49.80
2019-02-05T15:44:42.619Z,49.80
2019-02-05T15:47:13.509Z,50.10
2019-02-05T15:49:45.104Z,50.30
2019-02-05T15:52:16.948Z,50.30
2019-02-05T15:54:48.750Z,50.70
2019-02-05T15:57:20.140Z,50.70
2019-02-05T15:59:50.904Z,50.80
2019-02-05T16:02:23.709Z,50.80
2019-02-05T16:04:55.495Z,50.80
2019-02-05T16:07:28.913Z,51.70
2019-02-05T16:10:01.899Z,52.20
2019-02-05T16:12:33.961Z,52.50
2019-02-05T16:15:07.009Z,52.00
2019-02-05T16:17:39.660Z,51.50
2019-02-05T16:20:12.438Z,50.90
2019-02-05T16:22:43.591Z,50.40
2019-02-05T16:25:15.168Z,49.80
2019-02-05T16:27:47.152Z,49.40
2019-02-05T16:30:20.992Z,49.10
2019-02-05T16:32:51.921Z,49.20
2019-02-05T16:35:23.275Z,49.10
2019-02-05T16:37:55.406Z,49.30
2019-02-05T16:40:28.573Z,49.50
2019-02-05T16:43:00.035Z,49.40
2019-02-05T16:45:32.541Z,49.50
2019-02-05T16:48:03.578Z,49.60
2019-02-05T16:50:37.369Z,49.70
2019-02-05T16:53:10.571Z,49.70
2019-02-05T16:55:43.162Z,49.80
2019-02-05T16:58:14.295Z,49.70
2019-02-05T17:00:45.889Z,49.80
2019-02-05T17:03:17.175Z,50.00
2019-02-05T17:05:48.099Z,50.10
2019-02-05T17:08:20.392Z,50.70
2019-02-05T17:10:52.451Z,50.00
2019-02-05T17:13:24.058Z,50.00
2019-02-05T17:15:55.633Z,49.60
2019-02-05T17:18:27.167Z,50.60
2019-02-05T17:21:01.906Z,50.80
2019-02-05T17:23:33.259Z,51.00
2019-02-05T17:26:05.262Z,51.20
2019-02-05T17:28:36.900Z,51.30
2019-02-05T17:31:08.565Z,51.30
2019-02-05T17:33:40.723Z,51.50
2019-02-05T17:36:12.071Z,51.40
2019-02-05T17:38:46.750Z,51.50
2019-02-05T17:41:19.048Z,51.80
2019-02-05T17:43:50.664Z,51.90
2019-02-05T17:46:21.690Z,52.20
2019-02-05T17:48:56.094Z,52.50
2019-02-05T17:51:27.986Z,52.80
2019-02-05T17:53:58.652Z,53.10
2019-02-05T17:56:30.938Z,53.40
2019-02-05T17:59:01.745Z,53.80
2019-02-05T18:01:36.186Z,54.10
2019-02-05T18:04:06.851Z,54.10
2019-02-05T18:06:38.671Z,54.90
2019-02-05T18:09:11.300Z,54.90
2019-02-05T18:11:42.858Z,55.10
2019-02-05T18:14:14.432Z,54.80
2019-02-05T18:16:46.051Z,55.10
2019-02-05T18:19:17.577Z,55.10
2019-02-05T18:21:50.140Z,55.70
2019-02-05T18:24:22.412Z,56.20
2019-02-05T18:26:53.744Z,56.00
2019-02-05T18:29:26.991Z,56.00
2019-02-05T18:31:58.110Z,56.70
2019-02-05T18:34:30.554Z,56.60
2019-02-05T18:37:02.346Z,57.20
2019-02-05T18:39:33.702Z,57.70
2019-02-05T18:42:05.877Z,57.00
2019-02-05T18:44:37.718Z,56.90
2019-02-05T18:47:10.085Z,57.70
2019-02-05T18:49:42.374Z,58.00
2019-02-05T18:52:14.283Z,58.30
2019-02-05T18:54:46.636Z,58.60
2019-02-05T18:57:17.868Z,59.60
2019-02-05T18:59:50.207Z,59.60
2019-02-05T19:02:21.862Z,61.70
2019-02-05T19:04:53.109Z,61.90
2019-02-05T19:07:24.581Z,61.60
2019-02-05T19:09:56.218Z,60.70
2019-02-05T19:12:28.177Z,59.30
2019-02-05T19:15:00.300Z,58.40
2019-02-05T19:17:31.318Z,57.70
2019-02-05T19:20:04.700Z,57.00
2019-02-05T19:22:36.185Z,56.50
2019-02-05T19:25:29.751Z,55.90
2019-02-05T19:28:01.860Z,55.50
2019-02-05T19:30:35.086Z,55.20
2019-02-05T19:33:07.612Z,55.10
2019-02-05T19:35:40.017Z,54.90
2019-02-05T19:38:13.411Z,54.40
2019-02-05T19:40:56.841Z,54.00
2019-02-05T19:43:24.343Z,54.00
2019-02-05T19:46:30.391Z,53.80
2019-02-05T19:49:21.687Z,53.60
2019-02-05T19:51:48.957Z,53.40
2019-02-05T19:54:20.596Z,53.20
2019-02-05T19:56:52.500Z,53.20
2019-02-05T19:59:24.655Z,53.40
2019-02-05T20:01:56.674Z,53.20
2019-02-05T20:04:29.459Z,53.20
2019-02-05T20:07:01.054Z,52.90
2019-02-05T20:09:32.997Z,52.90
2019-02-05T20:12:04.461Z,53.10
2019-02-05T20:14:35.915Z,52.80
2019-02-05T20:17:07.107Z,53.40
2019-02-05T20:19:38.688Z,53.20
2019-02-05T20:22:09.580Z,53.30
2019-02-05T20:24:40.451Z,53.80
2019-02-05T20:27:11.982Z,53.50
2019-02-05T20:29:43.083Z,54.30
2019-02-05T20:32:14.511Z,54.00
2019-02-05T20:34:46.548Z,54.30
2019-02-05T20:37:21.346Z,54.40
2019-02-05T20:39:58.181Z,54.50
2019-02-05T20:42:33.823Z,54.80
2019-02-05T20:45:08.436Z,55.00
2019-02-05T20:47:39.512Z,55.10
2019-02-05T20:50:13.270Z,55.20
2019-02-05T20:52:44.248Z,54.90
2019-02-05T20:55:16.036Z,55.00
2019-02-05T20:57:47.106Z,55.00
2019-02-05T21:00:20.520Z,55.20
2019-02-05T21:02:53.893Z,55.50
2019-02-05T21:05:25.261Z,55.80
2019-02-05T21:07:58.240Z,55.50
2019-02-05T21:10:33.498Z,55.80
2019-02-05T21:13:04.677Z,55.80
2019-02-05T21:15:38.939Z,55.90
2019-02-05T21:18:11.467Z,56.40
2019-02-05T21:20:43.455Z,56.40
2019-02-05T21:23:15.079Z,56.90
2019-02-05T21:25:47.013Z,57.80
2019-02-05T21:28:18.146Z,57.80
2019-02-05T21:30:48.860Z,57.70
2019-02-05T21:33:19.355Z,58.10
2019-02-05T21:35:50.231Z,58.10
2019-02-05T21:38:21.431Z,58.70
2019-02-05T21:40:52.259Z,58.80
2019-02-05T21:43:22.969Z,59.50
2019-02-05T21:45:54.798Z,59.60
2019-02-05T21:48:26.361Z,59.00
2019-02-05T21:50:57.621Z,58.70
2019-02-05T21:53:28.557Z,57.60
2019-02-05T21:56:03.492Z,56.90
2019-02-05T21:58:34.860Z,56.90
2019-02-05T22:01:07.492Z,56.70
2019-02-05T22:03:39.277Z,56.60
2019-02-05T22:06:10.069Z,56.30
2019-02-05T22:08:41.737Z,56.00
2019-02-05T22:11:14.438Z,55.60
2019-02-05T22:13:44.958Z,55.20
2019-02-05T22:16:15.907Z,54.90
2019-02-05T22:18:46.958Z,54.60
2019-02-05T22:21:17.921Z,54.60
2019-02-05T22:23:48.499Z,54.20
2019-02-05T22:26:19.301Z,54.10
2019-02-05T22:28:50.065Z,53.60
2019-02-05T22:31:21.009Z,53.50
2019-02-05T22:33:51.637Z,53.20
2019-02-05T22:36:22.598Z,53.10
2019-02-05T22:38:57.629Z,53.00
2019-02-05T22:41:28.928Z,53.10
2019-02-05T22:44:00.147Z,53.30
2019-02-05T22:46:30.855Z,53.50
2019-02-05T22:49:01.876Z,53.60
2019-02-05T22:51:32.682Z,54.00
2019-02-05T22:54:03.926Z,54.20
2019-02-05T22:56:35.059Z,54.30
2019-02-05T22:59:07.903Z,54.40
2019-02-05T23:01:48.111Z,54.70
2019-02-05T23:05:01.790Z,54.80
2019-02-05T23:07:33.725Z,55.10
2019-02-05T23:10:32.771Z,55.20
2019-02-05T23:13:31.895Z,55.20
2019-02-05T23:16:04.420Z,55.60
2019-02-05T23:18:35.650Z,57.30
2019-02-05T23:21:06.739Z,58.30
2019-02-05T23:23:38.123Z,58.60
2019-02-05T23:26:11.723Z,58.90
2019-02-05T23:28:42.900Z,59.30
2019-02-05T23:31:13.865Z,61.20
2019-02-05T23:33:44.862Z,63.60
2019-02-05T23:36:16.033Z,64.90
2019-02-05T23:38:46.882Z,65.80
2019-02-05T23:41:18.168Z,65.60
2019-02-05T23:43:49.248Z,64.90
2019-02-05T23:46:21.345Z,64.10
2019-02-05T23:52:43.012Z,61.80
2019-02-05T23:55:16.056Z,60.70
2019-02-05T23:57:46.410Z,60.20
